Time;durP1;ratioP1;P1;durP2;ratioP2;P2;SDS_P1;SDS_P2;PMS_P1;PMS_P2;Temp;Humidity;BMP_temperature;BMP_pressure;BME280_temperature;BME280_humidity;BME280_pressure;Samples;Min_cycle;Max_cycle;Signal;HPM_P1;HPM_P2
2023/10/07 00:01:58;;;;;;;2.88;1.65;;;;;;;;;;5015932;28;20057;-76
2023/10/07 00:04:26;;;;;;;3.72;1.80;;;;;;;;;;5015803;28;20049;-74
2023/10/07 00:06:53;;;;;;;3.13;1.67;;;;;;;;;;5015465;28;20054;-76
2023/10/07 00:09:22;;;;;;;4.75;1.95;;;;;;;;;;5015764;28;20062;-76
2023/10/07 00:11:49;;;;;;;5.57;2.75;;;;;;;;;;5015858;28;20072;-76
2023/10/07 00:14:16;;;;;;;4.60;1.73;;;;;;;;;;5015255;28;20491;-76
2023/10/07 00:16:46;;;;;;;3.25;1.52;;;;;;;;;;5015362;28;20049;-77
2023/10/07 00:19:13;;;;;;;;;;;;;;;;;;5015551;28;20053;-77
2023/10/07 00:21:55;;;;;;;4.18;1.95;;;;;;;;;;5015841;28;19928;-76
2023/10/07 00:24:25;;;;;;;5.18;1.90;;;;;;;;;;5015581;28;20056;-75
2023/10/07 00:26:52;;;;;;;4.55;1.90;;;;;;;;;;5015500;28;20054;-77
2023/10/07 00:29:21;;;;;;;4.10;1.90;;;;;;;;;;5032304;28;20057;-76
2023/10/07 00:31:50;;;;;;;5.95;1.70;;;;;;;;;;5034645;28;20049;-76
2023/10/07 00:34:25;;;;;;;2.57;1.97;;;;;;;;;;5034767;28;20470;-75
2023/10/07 00:36:57;;;;;;;4.47;1.80;;;;;;;;;;5034998;28;20456;-76
2023/10/07 00:39:31;;;;;;;5.50;2.20;;;;;;;;;;5030264;28;20076;-76
2023/10/07 00:41:59;;;;;;;5.07;2.35;;;;;;;;;;5009933;28;20065;-76
2023/10/07 00:44:31;;;;;;;3.20;1.80;;;;;;;;;;5014908;28;20065;-76
2023/10/07 00:47:12;;;;;;;4.30;1.77;;;;;;;;;;5032265;28;20054;-76
2023/10/07 00:49:41;;;;;;;4.15;2.05;;;;;;;;;;5034562;28;20057;-76
2023/10/07 00:52:14;;;;;;;4.28;2.05;;;;;;;;;;5034831;28;20494;-76
2023/10/07 00:54:50;;;;;;;5.25;2.00;;;;;;;;;;5024204;28;20414;-76
2023/10/07 00:57:24;;;;;;;7.35;2.60;;;;;;;;;;5014820;28;20487;-76
2023/10/07 00:59:53;;;;;;;5.22;2.55;;;;;;;;;;5014729;28;20061;-76
2023/10/07 01:02:29;;;;;;;5.75;1.98;;;;;;;;;;5014840;28;20406;-76
2023/10/07 01:05:00;;;;;;;5.85;1.73;;;;;;;;;;5014556;28;20391;-76
2023/10/07 01:07:28;;;;;;;6.40;2.67;;;;;;;;;;5014735;28;20058;-76
2023/10/07 01:10:13;;;;;;;5.28;2.15;;;;;;;;;;5015303;28;20053;-75
2023/10/07 01:12:42;;;;;;;4.57;2.83;;;;;;;;;;5014607;28;20052;-76
2023/10/07 01:15:17;;;;;;;4.70;2.78;;;;;;;;;;5014553;28;20412;-76
2023/10/07 01:17:45;;;;;;;5.90;1.85;;;;;;;;;;5014848;28;20064;-76
2023/10/07 01:20:14;;;;;;;6.30;2.08;;;;;;;;;;5014314;28;20498;-76
2023/10/07 01:23:02;;;;;;;8.32;2.65;;;;;;;;;;5014413;28;20046;-76
2023/10/07 01:25:30;;;;;;;6.60;2.17;;;;;;;;;;5022366;28;20054;-77
2023/10/07 01:28:00;;;;;;;4.80;2.33;;;;;;;;;;5032495;28;20090;-76
2023/10/07 01:30:29;;;;;;;5.07;2.17;;;;;;;;;;5034086;28;20410;-76
2023/10/07 01:33:02;;;;;;;4.00;2.03;;;;;;;;;;5033895;28;20053;-76
2023/10/07 01:35:32;;;;;;;6.30;2.28;;;;;;;;;;5033628;28;20444;-76
2023/10/07 01:38:08;;;;;;;5.72;2.53;;;;;;;;;;5033857;28;20053;-76
2023/10/07 01:40:50;;;;;;;6.03;2.05;;;;;;;;;;5013125;28;20066;-76
2023/10/07 01:43:20;;;;;;;3.90;1.85;;;;;;;;;;5013920;28;20057;-76
2023/10/07 01:45:48;;;;;;;9.43;2.85;;;;;;;;;;5014136;28;20069;-76
2023/10/07 01:48:17;;;;;;;3.65;2.08;;;;;;;;;;5013826;28;20057;-76
2023/10/07 01:50:45;;;;;;;3.88;2.10;;;;;;;;;;5013863;28;20057;-76
2023/10/07 01:53:15;;;;;;;5.78;2.33;;;;;;;;;;5024931;28;20053;-76
2023/10/07 01:55:42;;;;;;;;;;;;;;;;;;5019176;28;20050;-76
2023/10/07 01:58:12;;;;;;;4.47;2.47;;;;;;;;;;5014828;28;19928;-76
2023/10/07 02:00:43;;;;;;;3.63;2.20;;;;;;;;;;5013694;28;20058;-76
2023/10/07 02:03:13;;;;;;;4.30;2.45;;;;;;;;;;5013455;28;20054;-76
2023/10/07 02:05:40;;;;;;;;;;;;;;;;;;5014380;28;20050;-76
2023/10/07 02:08:11;;;;;;;6.70;2.85;;;;;;;;;;5013208;28;20270;-76
2023/10/07 02:10:40;;;;;;;4.13;2.22;;;;;;;;;;5015193;28;20471;-75
2023/10/07 02:13:07;;;;;;;;;;;;;;;;;;5014036;28;20058;-76
2023/10/07 02:15:36;;;;;;;3.28;1.92;;;;;;;;;;5016990;28;19920;-76
2023/10/07 02:18:04;;;;;;;4.93;2.22;;;;;;;;;;5032760;28;20070;-76
2023/10/07 02:20:38;;;;;;;4.88;2.67;;;;;;;;;;5033066;28;20057;-76
2023/10/07 02:23:12;;;;;;;4.50;1.92;;;;;;;;;;5033292;28;20049;-76
2023/10/07 02:25:49;;;;;;;6.68;3.20;;;;;;;;;;5027411;28;20050;-76
2023/10/07 02:28:15;;;;;;;5.32;2.10;;;;;;;;;;5031777;28;20080;-76
2023/10/07 02:30:51;;;;;;;5.45;3.10;;;;;;;;;;5032977;28;20403;-76
2023/10/07 02:33:21;;;;;;;7.32;2.85;;;;;;;;;;5027376;28;20049;-76
2023/10/07 02:35:54;;;;;;;4.55;2.25;;;;;;;;;;5018111;28;20049;-76
2023/10/07 02:38:25;;;;;;;5.80;2.33;;;;;;;;;;5032861;28;20057;-76
2023/10/07 02:40:58;;;;;;;6.53;2.92;;;;;;;;;;5022829;28;20054;-76
2023/10/07 02:43:27;;;;;;;7.22;2.92;;;;;;;;;;5012913;28;20046;-76
2023/10/07 02:45:59;;;;;;;5.63;2.57;;;;;;;;;;5012702;28;20054;-76
2023/10/07 02:48:27;;;;;;;4.20;2.28;;;;;;;;;;5012816;28;20061;-76
2023/10/07 02:50:53;;;;;;;4.18;2.30;;;;;;;;;;5012985;28;20057;-76
2023/10/07 02:53:20;;;;;;;5.32;3.00;;;;;;;;;;5012569;28;20060;-76
2023/10/07 02:55:54;;;;;;;8.38;3.25;;;;;;;;;;5020026;28;20060;-76
2023/10/07 02:58:32;;;;;;;5.05;2.88;;;;;;;;;;5027135;28;20137;-77
2023/10/07 03:01:10;;;;;;;6.45;2.92;;;;;;;;;;5013117;28;20065;-76
2023/10/07 03:03:38;;;;;;;5.25;3.08;;;;;;;;;;5027113;28;20045;-77
2023/10/07 03:06:07;;;;;;;3.92;2.30;;;;;;;;;;5032707;28;20049;-76
2023/10/07 03:08:58;;;;;;;5.93;3.27;;;;;;;;;;5032497;28;20094;-76
2023/10/07 03:11:35;;;;;;;5.63;2.92;;;;;;;;;;5018160;28;20054;-76
2023/10/07 03:14:04;;;;;;;6.70;3.45;;;;;;;;;;5012785;28;20419;-76
2023/10/07 03:16:35;;;;;;;5.22;3.17;;;;;;;;;;5012787;28;20364;-75
2023/10/07 03:19:07;;;;;;;5.35;3.13;;;;;;;;;;5012216;28;20415;-76
2023/10/07 03:24:28;;;;;;;4.95;3.53;;;;;;;;;;4998293;28;20503;-76
2023/10/07 03:27:05;;;;;;;4.25;2.65;;;;;;;;;;5013315;28;20054;-76
2023/10/07 03:29:37;;;;;;;6.15;3.60;;;;;;;;;;5032512;28;20066;-76
2023/10/07 03:32:08;;;;;;;6.32;3.42;;;;;;;;;;5032386;28;20060;-76
2023/10/07 03:34:36;;;;;;;6.38;2.80;;;;;;;;;;5032332;28;20045;-76
2023/10/07 03:37:15;;;;;;;5.32;3.13;;;;;;;;;;5029520;28;20049;-77
2023/10/07 03:39:56;;;;;;;6.20;4.00;;;;;;;;;;5016827;28;20061;-77
2023/10/07 03:42:23;;;;;;;5.70;3.33;;;;;;;;;;5012340;28;20058;-76
2023/10/07 03:44:52;;;;;;;6.40;3.88;;;;;;;;;;5012496;28;20403;-76
2023/10/07 03:47:18;;;;;;;9.20;4.45;;;;;;;;;;5012531;28;20479;-76
2023/10/07 03:49:52;;;;;;;6.90;3.05;;;;;;;;;;5011942;28;20056;-76
2023/10/07 03:52:21;;;;;;;5.07;3.22;;;;;;;;;;5012498;28;20054;-76
2023/10/07 03:54:48;;;;;;;5.22;2.63;;;;;;;;;;5011829;28;20046;-76
2023/10/07 03:57:15;;;;;;;9.52;3.85;;;;;;;;;;5012718;28;20046;-76
2023/10/07 03:59:42;;;;;;;8.10;3.83;;;;;;;;;;5024822;28;20050;-76
2023/10/07 04:04:59;;;;;;;4.90;3.45;;;;;;;;;;5031092;28;20054;-76
2023/10/07 04:07:27;;;;;;;9.18;4.07;;;;;;;;;;5031081;28;20441;-76
2023/10/07 04:09:54;;;;;;;8.60;3.63;;;;;;;;;;5028238;28;20053;-76
2023/10/07 04:12:22;;;;;;;6.90;3.92;;;;;;;;;;5015741;28;20050;-76
2023/10/07 04:14:55;;;;;;;6.82;4.10;;;;;;;;;;5015886;28;20069;-76
2023/10/07 04:17:24;;;;;;;7.30;4.47;;;;;;;;;;5015249;28;20529;-76
2023/10/07 04:19:53;;;;;;;7.20;4.45;;;;;;;;;;5015131;28;20069;-76
2023/10/07 04:22:24;;;;;;;11.50;4.75;;;;;;;;;;5015568;28;20054;-76
2023/10/07 04:24:51;;;;;;;8.85;4.55;;;;;;;;;;5015525;28;20497;-76
2023/10/07 04:27:21;;;;;;;12.40;4.15;;;;;;;;;;5015434;28;20057;-76
2023/10/07 04:29:51;;;;;;;8.57;4.57;;;;;;;;;;5015477;28;20064;-77
2023/10/07 04:32:21;;;;;;;10.90;5.35;;;;;;;;;;5015398;28;20495;-76
2023/10/07 04:35:06;;;;;;;9.20;5.43;;;;;;;;;;5015198;28;20499;-76
2023/10/07 04:37:47;;;;;;;8.40;4.38;;;;;;;;;;5015257;28;20062;-76
2023/10/07 04:43:25;;;;;;;9.02;4.47;;;;;;;;;;5021233;28;20053;-77
2023/10/07 04:45:49;;;;;;;19.70;5.33;;;;;;;;;;5015324;28;20062;-77
2023/10/07 04:48:24;;;;;;;6.85;4.45;;;;;;;;;;5015146;28;20053;-76
2023/10/07 04:51:02;;;;;;;7.82;4.53;;;;;;;;;;5015279;28;20049;-76
2023/10/07 04:53:37;;;;;;;8.20;4.53;;;;;;;;;;5014614;28;20510;-77
2023/10/07 04:56:03;;;;;;;11.35;4.85;;;;;;;;;;5015013;28;20065;-76
2023/10/07 04:58:30;;;;;;;8.32;4.93;;;;;;;;;;5017476;28;20048;-76
2023/10/07 05:01:04;;;;;;;8.20;4.45;;;;;;;;;;5034764;28;20061;-76
2023/10/07 05:03:31;;;;;;;9.57;4.80;;;;;;;;;;5034891;28;20046;-76
2023/10/07 05:05:58;;;;;;;8.02;4.45;;;;;;;;;;5033996;28;20068;-76
2023/10/07 05:08:27;;;;;;;8.23;5.38;;;;;;;;;;5031187;28;20514;-76
2023/10/07 05:10:54;;;;;;;14.32;5.72;;;;;;;;;;5028743;28;20052;-76
2023/10/07 05:13:21;;;;;;;8.05;5.43;;;;;;;;;;5016700;28;20407;-76
2023/10/07 05:15:46;;;;;;;8.18;4.93;;;;;;;;;;5022847;28;20053;-76
2023/10/07 05:18:14;;;;;;;8.30;4.82;;;;;;;;;;5033654;28;20069;-77
2023/10/07 05:20:41;;;;;;;7.07;5.10;;;;;;;;;;5034524;28;20050;-76
2023/10/07 05:23:14;;;;;;;9.20;4.45;;;;;;;;;;5034408;28;20050;-77
2023/10/07 05:25:48;;;;;;;7.95;4.75;;;;;;;;;;5032376;28;20054;-76
2023/10/07 05:28:17;;;;;;;7.95;4.35;;;;;;;;;;5034449;28;20057;-76
2023/10/07 05:30:50;;;;;;;8.00;4.57;;;;;;;;;;5034609;28;20065;-76
2023/10/07 05:33:17;;;;;;;9.93;4.82;;;;;;;;;;5034083;28;20061;-76
2023/10/07 05:35:44;;;;;;;7.40;4.55;;;;;;;;;;5034086;28;20049;-76
2023/10/07 05:38:12;;;;;;;6.60;4.68;;;;;;;;;;5032334;28;20053;-77
2023/10/07 05:40:39;;;;;;;7.60;4.60;;;;;;;;;;5012695;28;20108;-76
2023/10/07 05:43:07;;;;;;;8.75;5.28;;;;;;;;;;5013388;28;20054;-76
2023/10/07 05:45:34;;;;;;;6.57;4.83;;;;;;;;;;5014158;28;20053;-76
2023/10/07 05:48:01;;;;;;;6.15;4.88;;;;;;;;;;5013805;28;20058;-76
2023/10/07 05:50:28;;;;;;;6.88;5.38;;;;;;;;;;5013565;28;20049;-77
2023/10/07 05:52:55;;;;;;;5.97;4.15;;;;;;;;;;5021508;28;20053;-76
2023/10/07 05:55:23;;;;;;;6.53;4.60;;;;;;;;;;5028372;28;20052;-77
2023/10/07 05:57:52;;;;;;;5.72;4.07;;;;;;;;;;5013771;28;20479;-77
2023/10/07 06:00:18;;;;;;;8.25;5.43;;;;;;;;;;5028395;28;20060;-76
2023/10/07 06:02:46;;;;;;;7.28;4.63;;;;;;;;;;5019704;28;20061;-76
2023/10/07 06:05:13;;;;;;;5.82;4.20;;;;;;;;;;5031931;28;20061;-76
2023/10/07 06:07:39;;;;;;;6.35;4.22;;;;;;;;;;5013484;28;20050;-77
2023/10/07 06:10:09;;;;;;;11.85;5.50;;;;;;;;;;5013701;28;20057;-76
2023/10/07 06:12:35;;;;;;;;;;;;;;;;;;5015901;28;20061;-76
2023/10/07 06:15:08;;;;;;;9.10;4.88;;;;;;;;;;5018541;28;19921;-76
2023/10/07 06:17:35;;;;;;;7.55;4.57;;;;;;;;;;5021567;28;20065;-76
2023/10/07 06:20:14;;;;;;;8.27;4.70;;;;;;;;;;5014910;28;20152;-76
2023/10/07 06:22:45;;;;;;;9.80;5.00;;;;;;;;;;5015509;28;20057;-77
2023/10/07 06:25:12;;;;;;;7.22;5.13;;;;;;;;;;5018601;28;20402;-76
2023/10/07 06:27:42;;;;;;;8.82;4.97;;;;;;;;;;5028024;28;20054;-77
2023/10/07 06:30:09;;;;;;;;;;;;;;;;;;5014415;28;20057;-76
2023/10/07 06:32:44;;;;;;;7.72;4.25;;;;;;;;;;5013282;28;20290;-77
2023/10/07 06:35:13;;;;;;;10.70;4.38;;;;;;;;;;5017997;28;20382;-76
2023/10/07 06:37:40;;;;;;;6.85;4.90;;;;;;;;;;5025629;28;20065;-76
2023/10/07 06:40:23;;;;;;;7.80;4.13;;;;;;;;;;5021038;28;20056;-76
2023/10/07 06:42:49;;;;;;;8.23;4.90;;;;;;;;;;5013762;28;20524;-76
2023/10/07 06:45:18;;;;;;;9.55;5.45;;;;;;;;;;5020129;28;20052;-78
2023/10/07 06:47:47;;;;;;;10.50;6.15;;;;;;;;;;5025781;28;20049;-76
2023/10/07 06:50:18;;;;;;;6.72;4.88;;;;;;;;;;5025610;28;20060;-76
2023/10/07 06:52:45;;;;;;;7.22;4.90;;;;;;;;;;5013767;28;20057;-76
2023/10/07 06:55:15;;;;;;;12.82;5.45;;;;;;;;;;5032427;28;20056;-76
2023/10/07 06:57:42;;;;;;;11.45;5.00;;;;;;;;;;5017039;28;20054;-77
2023/10/07 07:00:22;;;;;;;7.97;4.43;;;;;;;;;;5010384;28;20479;-76
2023/10/07 07:02:54;;;;;;;8.52;6.03;;;;;;;;;;5014460;28;20352;-78
2023/10/07 07:05:22;;;;;;;7.13;4.60;;;;;;;;;;5043395;28;20029;-78
2023/10/07 07:07:52;;;;;;;7.80;5.27;;;;;;;;;;5025473;28;20420;-78
2023/10/07 07:10:27;;;;;;;9.52;5.28;;;;;;;;;;5023175;28;20046;-78
2023/10/07 07:12:58;;;;;;;6.65;4.28;;;;;;;;;;5028257;28;20426;-77
2023/10/07 07:15:27;;;;;;;7.95;4.75;;;;;;;;;;5022492;28;20045;-78
2023/10/07 07:18:08;;;;;;;7.57;3.80;;;;;;;;;;5017586;28;20511;-79
2023/10/07 07:20:48;;;;;;;7.07;4.18;;;;;;;;;;5020263;28;20057;-76
2023/10/07 07:23:16;;;;;;;12.02;5.45;;;;;;;;;;5020420;28;20410;-77
2023/10/07 07:25:51;;;;;;;10.35;4.90;;;;;;;;;;5014359;28;20120;-78
2023/10/07 07:28:17;;;;;;;7.20;4.10;;;;;;;;;;5015278;28;20054;-77
2023/10/07 07:30:45;;;;;;;5.38;4.50;;;;;;;;;;5033744;28;20053;-77
2023/10/07 07:33:15;;;;;;;5.82;3.83;;;;;;;;;;5033484;28;20479;-76
2023/10/07 07:35:43;;;;;;;10.10;4.43;;;;;;;;;;5022270;28;20056;-77
2023/10/07 07:38:25;;;;;;;8.52;4.65;;;;;;;;;;5015405;28;20122;-77
2023/10/07 07:41:01;;;;;;;6.60;4.20;;;;;;;;;;5004436;28;20056;-77
2023/10/07 07:43:28;;;;;;;8.63;4.97;;;;;;;;;;5036387;28;20068;-77
2023/10/07 07:46:11;;;;;;;6.65;3.88;;;;;;;;;;5040634;28;20406;-77
2023/10/07 07:48:39;;;;;;;6.97;4.18;;;;;;;;;;5020600;28;20133;-76
2023/10/07 07:51:07;;;;;;;6.82;3.97;;;;;;;;;;5031879;28;20064;-76
2023/10/07 07:53:34;;;;;;;10.93;4.03;;;;;;;;;;5033259;28;20077;-77
2023/10/07 07:56:00;;;;;;;8.65;4.43;;;;;;;;;;5043134;28;20048;-77
2023/10/07 07:58:27;;;;;;;5.43;3.80;;;;;;;;;;5058154;28;20038;-78
2023/10/07 08:01:04;;;;;;;6.00;3.50;;;;;;;;;;5060034;28;20051;-78
2023/10/07 08:03:35;;;;;;;12.90;4.90;;;;;;;;;;5043986;28;20055;-76
2023/10/07 08:06:04;;;;;;;10.32;3.85;;;;;;;;;;5059614;28;20059;-77
2023/10/07 08:08:35;;;;;;;;;;;;;;;;;;5054498;28;20048;-76
2023/10/07 08:11:02;;;;;;;5.05;3.53;;;;;;;;;;5039335;28;19920;-76
2023/10/07 08:13:29;;;;;;;6.97;3.00;;;;;;;;;;5039318;28;20058;-77
2023/10/07 08:15:56;;;;;;;7.20;3.42;;;;;;;;;;5038414;28;20042;-76
2023/10/07 08:18:28;;;;;;;5.35;3.45;;;;;;;;;;5038082;28;20058;-75
2023/10/07 08:21:06;;;;;;;7.30;2.55;;;;;;;;;;5043624;28;20046;-75
2023/10/07 08:23:40;;;;;;;6.45;2.72;;;;;;;;;;5043444;28;20057;-76
2023/10/07 08:26:10;;;;;;;6.03;3.45;;;;;;;;;;5047608;28;20061;-78
2023/10/07 08:28:45;;;;;;;5.28;2.88;;;;;;;;;;5058097;28;20045;-77
2023/10/07 08:31:17;;;;;;;9.13;3.78;;;;;;;;;;5058668;28;20041;-76
2023/10/07 08:33:47;;;;;;;5.40;2.67;;;;;;;;;;5059433;28;20041;-76
2023/10/07 08:36:15;;;;;;;9.00;2.92;;;;;;;;;;5039498;28;20044;-77
2023/10/07 08:38:45;;;;;;;5.22;2.60;;;;;;;;;;5052280;28;20046;-76
2023/10/07 08:41:16;;;;;;;4.40;2.42;;;;;;;;;;5058023;28;20045;-77
2023/10/07 08:43:44;;;;;;;6.70;3.50;;;;;;;;;;5045437;28;20058;-76
2023/10/07 08:46:15;;;;;;;9.52;3.67;;;;;;;;;;5038089;28;20048;-77
2023/10/07 08:48:49;;;;;;;5.18;2.53;;;;;;;;;;5057781;28;20055;-76
2023/10/07 08:51:21;;;;;;;5.13;2.53;;;;;;;;;;5056024;28;20053;-76
2023/10/07 08:53:50;;;;;;;3.85;2.45;;;;;;;;;;5028219;28;20503;-76
2023/10/07 08:56:20;;;;;;;4.10;2.40;;;;;;;;;;5025133;28;20060;-77
2023/10/07 08:58:49;;;;;;;4.53;2.50;;;;;;;;;;5032156;28;20050;-77
2023/10/07 09:01:18;;;;;;;;;;;;;;;;;;5016591;28;20054;-77
2023/10/07 09:03:48;;;;;;;3.22;2.30;;;;;;;;;;5026200;28;19921;-76
2023/10/07 09:06:15;;;;;;;10.48;3.25;;;;;;;;;;5020466;28;20050;-77
2023/10/07 09:08:43;;;;;;;4.55;2.47;;;;;;;;;;5016002;28;20164;-77
2023/10/07 09:11:18;;;;;;;4.78;2.28;;;;;;;;;;5020992;28;20170;-77
2023/10/07 09:13:47;;;;;;;4.00;2.47;;;;;;;;;;5027897;28;20061;-77
2023/10/07 09:16:14;;;;;;;3.00;1.60;;;;;;;;;;5035966;28;20045;-76
2023/10/07 09:18:41;;;;;;;4.75;2.22;;;;;;;;;;5028962;28;20529;-77
2023/10/07 09:21:11;;;;;;;3.92;1.92;;;;;;;;;;5016332;28;20415;-77
2023/10/07 09:23:43;;;;;;;4.65;2.53;;;;;;;;;;5014705;28;20437;-77
2023/10/07 09:26:21;;;;;;;6.38;2.38;;;;;;;;;;5015193;28;20054;-78
2023/10/07 09:28:51;;;;;;;6.38;2.60;;;;;;;;;;5017477;28;20490;-76
2023/10/07 09:31:20;;;;;;;3.38;1.90;;;;;;;;;;5044965;28;20049;-76
2023/10/07 09:33:49;;;;;;;6.80;2.38;;;;;;;;;;5034777;28;20057;-76
2023/10/07 09:36:34;;;;;;;4.03;2.33;;;;;;;;;;5034499;28;20510;-78
2023/10/07 09:41:44;;;;;;;6.32;2.15;;;;;;;;;;5021774;28;20049;-77
2023/10/07 09:44:26;;;;;;;2.92;1.92;;;;;;;;;;5017588;28;20514;-76
2023/10/07 09:46:53;;;;;;;2.13;1.38;;;;;;;;;;5026908;28;20052;-77
2023/10/07 09:49:20;;;;;;;3.67;1.48;;;;;;;;;;5024683;28;20149;-77
2023/10/07 09:51:49;;;;;;;3.67;1.83;;;;;;;;;;5014990;28;20050;-77
2023/10/07 09:54:23;;;;;;;3.10;1.30;;;;;;;;;;5014794;28;20060;-78
2023/10/07 09:57:06;;;;;;;4.05;1.58;;;;;;;;;;5017530;28;20568;-78
2023/10/07 09:59:39;;;;;;;3.30;1.45;;;;;;;;;;5019896;28;20057;-77
2023/10/07 10:02:24;;;;;;;3.83;1.67;;;;;;;;;;5023169;28;20053;-77
2023/10/07 10:05:05;;;;;;;3.00;1.42;;;;;;;;;;5021247;28;20057;-78
2023/10/07 10:07:41;;;;;;;2.88;1.58;;;;;;;;;;5015143;28;20065;-77
2023/10/07 10:10:13;;;;;;;3.45;1.50;;;;;;;;;;5013739;28;20129;-77
2023/10/07 10:12:56;;;;;;;2.80;1.40;;;;;;;;;;5013845;28;20180;-77
2023/10/07 10:18:35;;;;;;;4.82;2.10;;;;;;;;;;5014147;28;20412;-77
2023/10/07 10:21:04;;;;;;;2.50;1.60;;;;;;;;;;5013450;28;20058;-77
2023/10/07 10:23:34;;;;;;;3.00;1.65;;;;;;;;;;5014189;28;20065;-77
2023/10/07 10:26:13;;;;;;;4.70;1.50;;;;;;;;;;5012584;28;20054;-77
2023/10/07 10:28:43;;;;;;;2.42;1.23;;;;;;;;;;5016315;28;20049;-77
2023/10/07 10:31:21;;;;;;;3.38;1.55;;;;;;;;;;5025819;28;20054;-78
2023/10/07 10:33:49;;;;;;;2.67;1.13;;;;;;;;;;5012427;28;20077;-77
2023/10/07 10:36:18;;;;;;;3.92;1.27;;;;;;;;;;5012082;28;20495;-77
2023/10/07 10:38:45;;;;;;;3.22;1.33;;;;;;;;;;5027752;28;20521;-77
2023/10/07 10:41:14;;;;;;;2.63;1.38;;;;;;;;;;5021683;28;20422;-76
2023/10/07 10:43:42;;;;;;;4.75;1.70;;;;;;;;;;5018564;28;20093;-77
2023/10/07 10:46:09;;;;;;;2.63;1.35;;;;;;;;;;5032343;28;20068;-77
2023/10/07 10:48:37;;;;;;;3.60;1.70;;;;;;;;;;5032808;28;20050;-77
2023/10/07 10:51:05;;;;;;;6.03;1.60;;;;;;;;;;5032909;28;20053;-77
2023/10/07 10:53:32;;;;;;;2.97;1.33;;;;;;;;;;5031170;28;20054;-77
2023/10/07 10:55:59;;;;;;;3.55;1.42;;;;;;;;;;5018838;28;20061;-77
2023/10/07 10:58:26;;;;;;;2.83;1.45;;;;;;;;;;5012338;28;20510;-79
2023/10/07 11:00:55;;;;;;;3.47;1.45;;;;;;;;;;5012668;28;20061;-77
2023/10/07 11:03:23;;;;;;;3.22;1.45;;;;;;;;;;5011734;28;20125;-77
2023/10/07 11:05:51;;;;;;;3.50;1.27;;;;;;;;;;5012584;28;20053;-77
2023/10/07 11:08:22;;;;;;;;;;;;;;;;;;5012181;28;20050;-77
2023/10/07 11:10:50;;;;;;;2.40;1.30;;;;;;;;;;5012060;28;19929;-77
2023/10/07 11:13:16;;;;;;;3.72;1.30;;;;;;;;;;5012460;28;20069;-77
2023/10/07 11:15:58;;;;;;;2.72;1.35;;;;;;;;;;5012310;28;20060;-77
2023/10/07 11:18:31;;;;;;;4.60;1.20;;;;;;;;;;5016626;28;20057;-79
2023/10/07 11:20:58;;;;;;;2.35;1.10;;;;;;;;;;5026835;28;20057;-75
2023/10/07 11:23:27;;;;;;;2.20;1.10;;;;;;;;;;5017397;28;20433;-76
2023/10/07 11:25:55;;;;;;;5.18;1.00;;;;;;;;;;5016493;28;20406;-76
2023/10/07 11:28:22;;;;;;;3.10;1.48;;;;;;;;;;5021846;28;20054;-76
2023/10/07 11:30:51;;;;;;;2.10;0.80;;;;;;;;;;5018714;28;20058;-79
2023/10/07 11:33:20;;;;;;;2.22;1.30;;;;;;;;;;5035770;28;20057;-79
2023/10/07 11:35:59;;;;;;;2.20;1.08;;;;;;;;;;5025974;28;20057;-78
2023/10/07 11:38:26;;;;;;;2.83;1.35;;;;;;;;;;5029748;28;20045;-76
2023/10/07 11:40:53;;;;;;;3.13;1.13;;;;;;;;;;5017154;28;20077;-75
2023/10/07 11:43:20;;;;;;;2.67;1.00;;;;;;;;;;5019382;28;20068;-74
2023/10/07 11:45:50;;;;;;;5.25;1.50;;;;;;;;;;5025563;28;20120;-76
2023/10/07 11:48:19;;;;;;;2.10;1.10;;;;;;;;;;5028196;28;20041;-75
2023/10/07 11:50:48;;;;;;;2.88;1.20;;;;;;;;;;5017658;28;20050;-76
2023/10/07 11:53:15;;;;;;;2.58;1.20;;;;;;;;;;5016318;28;20054;-75
2023/10/07 11:55:42;;;;;;;1.83;1.08;;;;;;;;;;5016154;28;20061;-75
2023/10/07 11:58:09;;;;;;;3.50;1.20;;;;;;;;;;5015880;28;20054;-75
2023/10/07 12:00:36;;;;;;;2.85;1.27;;;;;;;;;;5015958;28;20479;-75
2023/10/07 12:03:06;;;;;;;3.83;1.10;;;;;;;;;;5016029;28;20075;-76
2023/10/07 12:05:34;;;;;;;2.63;1.27;;;;;;;;;;5015927;28;20058;-75
2023/10/07 12:08:02;;;;;;;6.07;1.67;;;;;;;;;;5015723;28;20057;-76
2023/10/07 12:10:29;;;;;;;2.22;1.10;;;;;;;;;;5015831;28;20059;-76
2023/10/07 12:12:57;;;;;;;3.00;1.25;;;;;;;;;;5015438;28;20058;-76
2023/10/07 12:15:25;;;;;;;3.08;1.23;;;;;;;;;;5015584;28;20064;-75
2023/10/07 12:17:52;;;;;;;3.70;1.33;;;;;;;;;;5014941;28;20058;-76
2023/10/07 12:20:21;;;;;;;2.75;1.20;;;;;;;;;;5015613;28;20058;-76
2023/10/07 12:22:47;;;;;;;2.10;1.35;;;;;;;;;;5015471;28;20407;-76
2023/10/07 12:25:17;;;;;;;2.90;1.45;;;;;;;;;;5024641;28;20478;-76
2023/10/07 12:27:44;;;;;;;3.17;1.20;;;;;;;;;;5034735;28;20490;-76
2023/10/07 12:30:11;;;;;;;1.63;0.88;;;;;;;;;;5034851;28;20056;-76
2023/10/07 12:32:39;;;;;;;2.95;1.27;;;;;;;;;;5034827;28;20053;-76
2023/10/07 12:35:09;;;;;;;3.28;1.17;;;;;;;;;;5021598;28;20050;-77
2023/10/07 12:37:38;;;;;;;2.28;1.02;;;;;;;;;;5015062;28;20050;-75
2023/10/07 12:40:05;;;;;;;;;;;;;;;;;;5016175;28;20054;-75
2023/10/07 12:42:33;;;;;;;2.95;1.00;;;;;;;;;;5014981;28;19921;-75
2023/10/07 12:45:01;;;;;;;2.87;1.07;;;;;;;;;;5014897;28;20061;-75
2023/10/07 12:47:29;;;;;;;4.00;1.40;;;;;;;;;;5014771;28;20061;-75
2023/10/07 12:49:56;;;;;;;4.67;1.53;;;;;;;;;;5015765;28;20049;-76
2023/10/07 12:52:26;;;;;;;2.20;1.55;;;;;;;;;;5015405;28;20825;-76
2023/10/07 12:54:52;;;;;;;3.10;1.38;;;;;;;;;;5015107;28;20440;-76
2023/10/07 12:57:19;;;;;;;2.13;1.58;;;;;;;;;;5014943;28;20530;-76
2023/10/07 12:59:52;;;;;;;2.67;1.38;;;;;;;;;;5014779;28;20372;-77
2023/10/07 13:02:18;;;;;;;3.40;1.20;;;;;;;;;;5014626;28;20054;-76
2023/10/07 13:04:47;;;;;;;3.92;1.20;;;;;;;;;;5016399;28;20061;-76
2023/10/07 13:07:14;;;;;;;4.40;1.88;;;;;;;;;;5034525;28;20593;-76
2023/10/07 13:09:42;;;;;;;2.83;1.48;;;;;;;;;;5034780;28;20053;-75
2023/10/07 13:12:15;;;;;;;2.15;1.20;;;;;;;;;;5023771;28;20049;-75
2023/10/07 13:14:42;;;;;;;4.03;1.65;;;;;;;;;;5014639;28;20049;-75
2023/10/07 13:17:13;;;;;;;2.88;1.60;;;;;;;;;;5014259;28;20470;-75
2023/10/07 13:19:43;;;;;;;3.17;1.50;;;;;;;;;;5015470;28;20056;-76
2023/10/07 13:22:10;;;;;;;2.83;1.77;;;;;;;;;;5004189;28;20049;-77
2023/10/07 13:24:37;;;;;;;3.58;1.80;;;;;;;;;;5028397;28;20058;-76
2023/10/07 13:27:04;;;;;;;6.63;2.60;;;;;;;;;;5029802;28;20049;-78
2023/10/07 13:29:34;;;;;;;3.55;1.42;;;;;;;;;;5031077;28;20060;-76
2023/10/07 13:32:03;;;;;;;5.07;1.80;;;;;;;;;;5014943;28;20057;-76
2023/10/07 13:34:38;;;;;;;2.88;1.70;;;;;;;;;;5014134;28;20068;-76
2023/10/07 13:37:11;;;;;;;4.60;1.77;;;;;;;;;;5018127;28;20487;-77
2023/10/07 13:39:40;;;;;;;4.28;1.40;;;;;;;;;;5027104;28;20050;-76
2023/10/07 13:42:11;;;;;;;3.97;1.70;;;;;;;;;;5026065;28;20050;-76
2023/10/07 13:44:37;;;;;;;3.42;1.38;;;;;;;;;;5025311;28;20054;-76
2023/10/07 13:47:07;;;;;;;3.58;1.55;;;;;;;;;;5018649;28;20049;-77
2023/10/07 13:49:37;;;;;;;5.18;2.17;;;;;;;;;;5013458;28;20415;-76
2023/10/07 13:52:05;;;;;;;3.58;2.03;;;;;;;;;;5017563;28;20054;-75
2023/10/07 13:54:46;;;;;;;5.55;2.05;;;;;;;;;;5033123;28;20060;-76
2023/10/07 13:57:18;;;;;;;3.80;2.15;;;;;;;;;;5033339;28;20072;-76
2023/10/07 13:59:45;;;;;;;3.38;1.73;;;;;;;;;;5025126;28;20065;-76
2023/10/07 14:02:19;;;;;;;3.20;1.73;;;;;;;;;;5020790;28;20406;-76
2023/10/07 14:04:52;;;;;;;5.00;1.90;;;;;;;;;;5025966;28;20072;-75
2023/10/07 14:07:19;;;;;;;3.38;1.70;;;;;;;;;;5021805;28;20058;-76
2023/10/07 14:09:49;;;;;;;2.65;1.65;;;;;;;;;;5024811;28;20050;-75
2023/10/07 14:12:16;;;;;;;4.65;1.90;;;;;;;;;;5032695;28;20041;-76
2023/10/07 14:14:43;;;;;;;4.63;1.75;;;;;;;;;;5033272;28;20053;-74
2023/10/07 14:17:10;;;;;;;4.05;2.10;;;;;;;;;;5029523;28;20759;-75
2023/10/07 14:19:38;;;;;;;6.05;2.35;;;;;;;;;;5019849;28;20061;-77
2023/10/07 14:22:07;;;;;;;3.45;1.65;;;;;;;;;;5016985;28;20054;-77
2023/10/07 14:24:33;;;;;;;5.55;2.03;;;;;;;;;;5019893;28;20068;-76
2023/10/07 14:27:00;;;;;;;6.80;2.42;;;;;;;;;;5027945;28;20057;-77
2023/10/07 14:29:27;;;;;;;4.50;2.30;;;;;;;;;;5021308;28;20418;-78
2023/10/07 14:31:54;;;;;;;4.60;1.60;;;;;;;;;;5022436;28;20053;-77
2023/10/07 14:34:21;;;;;;;4.30;1.90;;;;;;;;;;5015869;28;20053;-77
2023/10/07 14:36:48;;;;;;;4.65;2.10;;;;;;;;;;5030924;28;20056;-77
2023/10/07 14:39:16;;;;;;;5.15;2.13;;;;;;;;;;5032823;28;20056;-76
2023/10/07 14:41:43;;;;;;;4.55;2.08;;;;;;;;;;5032702;28;20352;-76
2023/10/07 14:44:10;;;;;;;4.60;2.00;;;;;;;;;;5032566;28;20049;-77
2023/10/07 14:46:42;;;;;;;4.40;2.33;;;;;;;;;;5032476;28;20058;-76
2023/10/07 14:49:10;;;;;;;3.78;1.75;;;;;;;;;;5017878;28;20054;-76
2023/10/07 14:51:36;;;;;;;5.10;2.42;;;;;;;;;;5012270;28;20057;-77
2023/10/07 14:54:03;;;;;;;2.78;1.73;;;;;;;;;;5027752;28;20430;-76
2023/10/07 14:56:32;;;;;;;3.50;1.50;;;;;;;;;;5028596;28;20065;-77
2023/10/07 14:58:59;;;;;;;4.65;1.98;;;;;;;;;;5012563;28;20057;-77
2023/10/07 15:01:26;;;;;;;3.05;2.10;;;;;;;;;;5013236;28;20474;-76
2023/10/07 15:03:54;;;;;;;3.25;1.90;;;;;;;;;;5019799;28;20056;-77
2023/10/07 15:06:21;;;;;;;3.47;1.77;;;;;;;;;;5013162;28;20054;-77
2023/10/07 15:08:49;;;;;;;3.90;2.00;;;;;;;;;;5012393;28;20065;-76
2023/10/07 15:11:19;;;;;;;3.38;1.60;;;;;;;;;;5012679;28;20049;-77
2023/10/07 15:13:49;;;;;;;3.15;1.73;;;;;;;;;;5012479;28;20057;-76
2023/10/07 15:16:16;;;;;;;4.30;2.42;;;;;;;;;;5012472;28;20479;-76
2023/10/07 15:18:43;;;;;;;4.07;1.88;;;;;;;;;;5010564;28;20053;-76